createdAt,value
2018-04-28T00:02:46.386Z,17.57
2018-04-28T00:07:47.356Z,18.83
2018-04-28T00:12:48.324Z,18.23
2018-04-28T00:17:49.349Z,18.90
2018-04-28T00:23:05.230Z,17.70
2018-04-28T00:28:07.176Z,18.90
2018-04-28T00:33:23.078Z,17.30
2018-04-28T00:38:24.094Z,19.00
2018-04-28T00:43:25.065Z,19.13
2018-04-28T00:48:47.763Z,19.40
2018-04-28T00:53:48.715Z,21.47
2018-04-28T00:58:51.563Z,20.50
2018-04-28T01:03:53.425Z,20.43
2018-04-28T01:08:55.361Z,19.23
2018-04-28T01:13:57.294Z,21.70
2018-04-28T01:18:58.273Z,21.50
2018-04-28T01:24:02.056Z,25.33
2018-04-28T01:29:06.987Z,24.50
2018-04-28T01:34:14.999Z,23.80
2018-04-28T01:39:17.856Z,24.40
2018-04-28T01:44:43.710Z,24.97
2018-04-28T01:49:49.668Z,23.47
2018-04-28T01:54:51.503Z,24.33
2018-04-28T01:59:53.439Z,23.33
2018-04-28T02:04:58.220Z,22.80
2018-04-28T02:09:59.196Z,22.50
2018-04-28T02:15:06.984Z,23.90
2018-04-28T02:20:13.893Z,22.77
2018-04-28T02:25:14.849Z,23.77
2018-04-28T02:30:15.806Z,22.70
2018-04-28T02:35:17.563Z,23.53
2018-04-28T02:46:02.397Z,21.40
2018-04-28T02:51:12.318Z,23.30
2018-04-28T02:56:20.412Z,22.03
2018-04-28T03:01:33.716Z,23.50
2018-04-28T03:06:50.586Z,24.23
2018-04-28T03:12:07.325Z,23.67
2018-04-28T03:17:09.116Z,25.03
2018-04-28T03:22:10.093Z,24.87
2018-04-28T03:27:11.875Z,25.20
2018-04-28T03:32:12.826Z,25.43
2018-04-28T03:37:20.550Z,24.80
2018-04-28T03:42:27.210Z,27.53
2018-04-28T03:53:03.831Z,26.80
2018-04-28T03:58:17.140Z,27.70
2018-04-28T04:03:22.088Z,28.37
2018-04-28T04:08:35.444Z,29.63
2018-04-28T04:13:50.072Z,27.03
2018-04-28T04:18:51.887Z,28.70
2018-04-28T04:29:37.664Z,28.90
2018-04-28T04:34:43.450Z,30.13
2018-04-28T04:39:56.602Z,30.73
2018-04-28T04:45:18.262Z,28.00
2018-04-28T04:56:20.489Z,30.00
2018-04-28T05:07:00.690Z,28.40
2018-04-28T05:18:02.429Z,27.73
2018-04-28T05:23:15.552Z,27.43
2018-04-28T05:28:23.742Z,27.43
2018-04-28T05:33:37.214Z,26.97
2018-04-28T05:50:14.812Z,25.60
2018-04-28T05:55:31.742Z,24.33
2018-04-28T06:00:32.714Z,24.47
2018-04-28T06:05:38.563Z,24.40
2018-04-28T06:10:46.486Z,23.47
2018-04-28T06:15:59.841Z,23.70
2018-04-28T06:21:03.385Z,21.33
2018-04-28T06:26:04.451Z,19.83
2018-04-28T06:31:05.335Z,18.13
2018-04-28T06:36:06.324Z,17.33
2018-04-28T06:41:07.385Z,15.10
2018-04-28T06:46:08.326Z,13.00
2018-04-28T06:51:09.309Z,12.33
2018-04-28T06:56:10.273Z,11.20
2018-04-28T07:01:11.260Z,10.50
2018-04-28T07:06:12.224Z,7.47
2018-04-28T07:11:13.229Z,6.53
2018-04-28T07:16:14.217Z,7.80
2018-04-28T07:21:15.419Z,5.50
2018-04-28T07:26:16.368Z,7.10
2018-04-28T07:31:17.372Z,6.00
2018-04-28T07:36:18.362Z,6.37
2018-04-28T07:41:19.344Z,5.97
2018-04-28T07:46:20.326Z,6.93
2018-04-28T07:51:21.295Z,7.03
2018-04-28T07:56:22.276Z,6.13
2018-04-28T08:01:23.244Z,6.10
2018-04-28T08:06:24.216Z,5.10
2018-04-28T08:11:25.297Z,5.07
2018-04-28T08:16:28.085Z,5.60
2018-04-28T08:21:29.198Z,6.03
2018-04-28T08:26:30.185Z,5.60
2018-04-28T08:31:31.167Z,6.33
2018-04-28T08:36:32.146Z,5.20
2018-04-28T08:41:33.144Z,5.40
2018-04-28T08:46:34.123Z,6.40
2018-04-28T08:51:35.117Z,6.43
2018-04-28T08:57:48.270Z,6.33
2018-04-28T09:02:49.257Z,6.30
2018-04-28T09:07:50.226Z,6.30
2018-04-28T09:12:51.222Z,6.07
2018-04-28T09:17:52.234Z,6.87
2018-04-28T09:22:53.252Z,5.70
2018-04-28T09:27:54.206Z,5.70
2018-04-28T09:32:55.258Z,5.87
2018-04-28T09:37:56.176Z,7.20
2018-04-28T09:42:57.143Z,5.63
2018-04-28T09:47:58.111Z,5.80
2018-04-28T09:52:59.068Z,5.10
2018-04-28T09:58:05.739Z,6.47
2018-04-28T10:03:06.707Z,7.67
2018-04-28T10:08:07.699Z,8.40
2018-04-28T10:13:08.664Z,7.70
2018-04-28T10:18:09.683Z,7.97
2018-04-28T10:23:10.650Z,10.80
2018-04-28T10:28:11.634Z,10.03
2018-04-28T10:33:12.615Z,11.10
2018-04-28T10:38:13.604Z,9.10
2018-04-28T10:43:14.595Z,9.50
2018-04-28T10:48:15.584Z,9.70
2018-04-28T10:53:16.575Z,10.23
2018-04-28T10:58:17.557Z,9.57
2018-04-28T11:03:18.541Z,9.83
2018-04-28T11:08:19.532Z,7.67
2018-04-28T11:13:20.525Z,8.47
2018-04-28T11:18:21.575Z,7.77
2018-04-28T11:23:24.431Z,7.37
2018-04-28T11:28:25.668Z,8.83
2018-04-28T11:33:26.722Z,8.93
2018-04-28T11:38:27.738Z,10.37
2018-04-28T11:43:28.718Z,10.77
2018-04-28T11:48:29.765Z,11.13
2018-04-28T11:53:30.750Z,11.77
2018-04-28T11:58:31.715Z,11.17
2018-04-28T12:03:32.711Z,11.63
2018-04-28T12:08:33.687Z,13.70
2018-04-28T12:13:34.665Z,12.57
2018-04-28T12:18:35.695Z,13.60
2018-04-28T12:23:36.743Z,15.30
2018-04-28T12:28:37.723Z,15.83
2018-04-28T12:33:38.737Z,14.73
2018-04-28T12:38:39.743Z,15.57
2018-04-28T12:43:40.831Z,16.07
2018-04-28T12:48:41.846Z,17.10
2018-04-28T12:53:42.836Z,17.90
2018-04-28T12:58:43.806Z,19.23
2018-04-28T13:03:44.827Z,22.90
2018-04-28T13:08:45.819Z,21.37
2018-04-28T13:13:46.794Z,24.00
2018-04-28T13:18:47.812Z,23.40
2018-04-28T13:23:48.853Z,24.10
2018-04-28T13:28:49.849Z,23.57
2018-04-28T13:33:50.853Z,23.20
2018-04-28T13:38:51.825Z,24.60
2018-04-28T13:43:52.828Z,23.77
2018-04-28T13:48:53.837Z,23.13
2018-04-28T13:53:54.806Z,23.63
2018-04-28T13:58:55.827Z,19.00
2018-04-28T14:03:56.836Z,19.83
2018-04-28T14:08:57.883Z,18.87
2018-04-28T14:13:58.888Z,17.77
2018-04-28T14:18:59.904Z,20.80
2018-04-28T14:24:00.957Z,18.40
2018-04-28T14:29:01.959Z,19.73
2018-04-28T14:34:02.949Z,20.17
2018-04-28T14:39:04.029Z,17.97
2018-04-28T14:44:05.135Z,17.70
2018-04-28T14:49:06.103Z,15.53
2018-04-28T14:54:07.089Z,13.13
2018-04-28T14:59:08.063Z,13.53
2018-04-28T15:04:09.046Z,14.00
2018-04-28T15:09:10.007Z,14.80
2018-04-28T15:14:11.014Z,16.23
2018-04-28T15:19:12.041Z,15.53
2018-04-28T15:24:13.094Z,13.90
2018-04-28T15:29:14.081Z,14.97
2018-04-28T15:34:15.028Z,13.40
2018-04-28T15:39:15.997Z,11.77
2018-04-28T15:44:16.983Z,12.57
2018-04-28T15:49:17.977Z,12.00
2018-04-28T15:54:18.950Z,11.57
2018-04-28T15:59:19.941Z,11.40
2018-04-28T16:04:20.928Z,11.10
2018-04-28T16:09:21.916Z,11.10
2018-04-28T16:14:22.884Z,12.10
2018-04-28T16:19:23.904Z,11.00
2018-04-28T16:24:24.911Z,10.33
2018-04-28T16:29:25.883Z,11.13
2018-04-28T16:34:26.871Z,12.23
2018-04-28T16:39:27.860Z,11.37
2018-04-28T16:44:28.840Z,12.60
2018-04-28T16:49:29.860Z,12.07
2018-04-28T16:54:30.837Z,12.33
2018-04-28T16:59:31.828Z,12.77
2018-04-28T17:04:32.809Z,12.67
2018-04-28T17:09:33.768Z,11.63
2018-04-28T17:14:34.766Z,12.33
2018-04-28T17:19:35.880Z,12.47
2018-04-28T17:24:36.887Z,12.80
2018-04-28T17:29:37.896Z,15.00
2018-04-28T17:34:38.900Z,17.20
2018-04-28T17:39:39.913Z,17.73
2018-04-28T17:44:40.930Z,15.70
2018-04-28T17:49:41.930Z,14.90
2018-04-28T17:54:42.912Z,18.07
2018-04-28T17:59:43.882Z,17.57
2018-04-28T18:04:44.907Z,15.90
2018-04-28T18:09:45.931Z,17.70
2018-04-28T18:14:46.923Z,16.00
2018-04-28T18:19:47.950Z,17.33
2018-04-28T18:24:48.946Z,15.13
2018-04-28T18:29:49.942Z,17.20
2018-04-28T18:34:50.934Z,18.00
2018-04-28T18:39:51.951Z,18.13
2018-04-28T18:44:52.973Z,21.00
2018-04-28T18:49:53.938Z,19.53
2018-04-28T18:54:54.925Z,21.50
2018-04-28T18:59:55.942Z,20.60
2018-04-28T19:04:56.958Z,23.77
2018-04-28T19:09:57.934Z,21.23
2018-04-28T19:14:58.925Z,21.70
2018-04-28T19:20:00.349Z,21.20
2018-04-28T19:25:01.393Z,20.57
2018-04-28T19:30:02.401Z,19.20
2018-04-28T19:35:03.401Z,21.73
2018-04-28T19:40:04.372Z,18.73
2018-04-28T19:45:05.356Z,20.67
2018-04-28T19:50:06.353Z,19.70
2018-04-28T19:55:07.348Z,21.50
2018-04-28T20:00:08.362Z,19.60
2018-04-28T20:05:09.365Z,19.50
2018-04-28T20:10:10.400Z,20.27
2018-04-28T20:15:11.398Z,18.73
2018-04-28T20:20:12.448Z,16.67
2018-04-28T20:25:17.413Z,16.20
2018-04-28T20:30:18.464Z,16.13
2018-04-28T20:35:19.412Z,15.87
2018-04-28T20:40:20.384Z,17.27
2018-04-28T20:45:21.361Z,17.10
2018-04-28T20:50:22.373Z,16.63
2018-04-28T20:55:23.360Z,17.00
2018-04-28T21:00:24.320Z,17.50
2018-04-28T21:05:25.340Z,17.10
2018-04-28T21:10:26.317Z,18.70
2018-04-28T21:15:27.337Z,17.40
2018-04-28T21:20:28.347Z,17.37
2018-04-28T21:25:29.351Z,19.17
2018-04-28T21:30:30.359Z,17.90
2018-04-28T21:35:31.340Z,18.17
2018-04-28T21:40:32.320Z,19.50
2018-04-28T21:45:33.303Z,19.37
2018-04-28T21:50:34.288Z,18.50
2018-04-28T21:55:35.267Z,20.67
2018-04-28T22:00:36.255Z,21.47
2018-04-28T22:05:37.223Z,22.07
2018-04-28T22:10:38.236Z,22.77
2018-04-28T22:15:39.208Z,22.80
2018-04-28T22:20:40.199Z,23.40
2018-04-28T22:25:41.219Z,23.60
2018-04-28T22:30:42.213Z,26.10
2018-04-28T22:35:43.168Z,21.93
2018-04-28T22:40:44.197Z,21.60
2018-04-28T22:45:45.185Z,21.57
2018-04-28T22:50:46.165Z,21.10
2018-04-28T22:55:47.181Z,20.27
2018-04-28T23:00:48.172Z,19.37
2018-04-28T23:05:49.156Z,20.67
2018-04-28T23:10:50.152Z,19.97
2018-04-28T23:15:51.133Z,19.53
2018-04-28T23:20:52.151Z,19.80
2018-04-28T23:25:53.126Z,20.37
2018-04-28T23:30:54.148Z,19.63
2018-04-28T23:35:55.116Z,19.40
2018-04-28T23:40:56.112Z,20.10
2018-04-28T23:45:57.128Z,19.20
2018-04-28T23:50:58.080Z,19.50
2018-04-28T23:55:59.052Z,22.23
